Time;durP1;ratioP1;P1;durP2;ratioP2;P2;SDS_P1;SDS_P2;PMS_P1;PMS_P2;Temp;Humidity;BMP_temperature;BMP_pressure;BME280_temperature;BME280_humidity;BME280_pressure;Samples;Min_cycle;Max_cycle;Signal;HPM_P1;HPM_P2
2023/05/10 00:01:06;;;;;;;3.25;1.58;;;17.00;54.70;;;;;;5075801;28;20390;-79
2023/05/10 00:03:31;;;;;;;3.55;1.50;;;16.90;55.10;;;;;;5075720;28;20032;-79
2023/05/10 00:05:57;;;;;;;2.17;1.42;;;17.00;55.30;;;;;;5075470;28;20474;-78
2023/05/10 00:08:23;;;;;;;3.10;1.77;;;16.90;54.70;;;;;;5057641;28;20104;-78
2023/05/10 00:10:49;;;;;;;2.78;1.42;;;17.00;54.20;;;;;;5075473;28;20082;-77
2023/05/10 00:13:15;;;;;;;2.22;1.40;;;16.90;54.50;;;;;;5075300;28;20524;-78
2023/05/10 00:15:41;;;;;;;2.63;1.58;;;16.90;55.30;;;;;;5075532;28;20033;-79
2023/05/10 00:18:07;;;;;;;2.67;1.38;;;16.90;55.30;;;;;;5075169;28;20036;-78
2023/05/10 00:20:32;;;;;;;2.92;1.48;;;16.90;55.50;;;;;;5075400;28;20037;-78
2023/05/10 00:22:58;;;;;;;3.28;1.50;;;16.90;55.10;;;;;;5075186;28;20029;-79
2023/05/10 00:25:24;;;;;;;5.65;1.80;;;16.90;55.30;;;;;;5075259;28;20060;-78
2023/05/10 00:27:50;;;;;;;3.78;1.70;;;16.80;54.80;;;;;;5075043;28;20383;-78
2023/05/10 00:30:16;;;;;;;2.90;1.58;;;16.80;55.20;;;;;;5074606;28;20090;-78
2023/05/10 00:32:41;;;;;;;4.25;1.88;;;16.80;55.30;;;;;;5074275;28;20040;-78
2023/05/10 00:35:08;;;;;;;2.85;1.33;;;16.90;55.00;;;;;;5074759;28;20041;-76
2023/05/10 00:37:33;;;;;;;4.38;1.80;;;16.90;55.20;;;;;;5075021;28;20112;-77
2023/05/10 00:39:59;;;;;;;4.47;1.80;;;16.90;54.90;;;;;;5075116;28;20124;-80
2023/05/10 00:42:25;;;;;;;2.45;1.70;;;16.90;54.90;;;;;;5075072;28;20028;-79
2023/05/10 00:44:51;;;;;;;2.78;1.70;;;16.90;55.30;;;;;;5074729;28;20032;-79
2023/05/10 00:47:17;;;;;;;2.42;1.60;;;16.80;54.80;;;;;;5074752;28;20509;-80
2023/05/10 00:49:43;;;;;;;2.13;1.60;;;16.80;54.40;;;;;;5074587;28;20029;-79
2023/05/10 00:52:09;;;;;;;2.40;1.60;;;16.80;54.90;;;;;;5074933;28;20029;-80
2023/05/10 00:54:36;;;;;;;3.03;1.80;;;16.80;54.70;;;;;;5073941;28;20485;-80
2023/05/10 00:57:03;;;;;;;3.08;1.50;;;16.80;55.00;;;;;;5074998;28;20427;-79
2023/05/10 00:59:29;;;;;;;2.15;1.60;;;16.80;55.20;;;;;;5071656;28;20059;-79
2023/05/10 01:01:54;;;;;;;4.43;1.77;;;16.80;54.90;;;;;;5071851;28;20079;-80
2023/05/10 01:04:25;;;;;;;4.60;1.58;;;16.80;54.80;;;;;;5072604;28;20032;-79
2023/05/10 01:06:52;;;;;;;7.38;2.20;;;16.80;54.70;;;;;;5074133;28;20033;-80
2023/05/10 01:09:18;;;;;;;4.70;1.88;;;16.80;55.00;;;;;;5074347;28;20031;-81
2023/05/10 01:11:45;;;;;;;6.55;1.85;;;16.80;55.20;;;;;;5074463;28;20508;-81
2023/05/10 01:14:11;;;;;;;3.10;1.58;;;16.80;55.30;;;;;;5074269;28;20047;-81
2023/05/10 01:16:40;;;;;;;2.60;1.63;;;16.70;55.60;;;;;;5074295;28;20385;-81
2023/05/10 01:19:17;;;;;;;4.32;2.13;;;16.80;55.40;;;;;;5074314;28;20029;-82
2023/05/10 01:22:03;;;;;;;4.18;1.60;;;16.80;55.10;;;;;;5073954;28;20037;-79
2023/05/10 01:25:08;;;;;;;3.00;1.55;;;16.80;55.80;;;;;;5074296;28;20060;-82
2023/05/10 01:28:04;;;;;;;3.55;1.70;;;16.70;55.40;;;;;;5074035;28;20035;-79
2023/05/10 01:31:21;;;;;;;5.05;1.80;;;16.70;55.00;;;;;;5074208;28;20040;-82
2023/05/10 01:33:55;;;;;;;2.78;1.60;;;16.70;55.50;;;;;;5029626;28;20041;-82
2023/05/10 01:36:27;;;;;;;3.78;1.88;;;16.70;56.10;;;;;;5073712;28;20037;-77
2023/05/10 01:39:20;;;;;;;5.25;1.83;;;16.70;55.70;;;;;;5073928;28;20037;-80
2023/05/10 01:41:45;;;;;;;;;;;16.70;56.50;;;;;;5074229;28;20032;-80
2023/05/10 01:44:31;;;;;;;10.07;2.50;;;16.70;56.30;;;;;;5073444;28;20282;-79
2023/05/10 01:47:20;;;;;;;8.55;2.17;;;16.70;56.60;;;;;;5073526;28;20566;-79
2023/05/10 01:49:50;;;;;;;4.90;2.00;;;16.60;56.60;;;;;;5073138;28;20536;-80
2023/05/10 01:52:22;;;;;;;5.35;1.83;;;16.70;57.10;;;;;;5073665;28;20036;-79
2023/05/10 01:54:59;;;;;;;8.38;2.45;;;16.60;56.60;;;;;;5073758;28;20120;-79
2023/05/10 01:57:30;;;;;;;9.00;2.20;;;16.70;56.70;;;;;;5073384;28;20482;-83
2023/05/10 01:59:57;;;;;;;4.85;1.70;;;16.60;56.70;;;;;;5073179;28;20119;-82
2023/05/10 02:02:25;;;;;;;6.43;1.92;;;16.60;56.90;;;;;;5073238;28;20029;-84
2023/05/10 02:04:54;;;;;;;3.00;2.10;;;16.60;57.10;;;;;;5072294;28;20032;-81
2023/05/10 02:07:21;;;;;;;3.60;1.98;;;16.60;57.20;;;;;;5073423;28;20056;-81
2023/05/10 02:09:48;;;;;;;8.00;2.10;;;16.60;57.30;;;;;;5073339;28;20063;-80
2023/05/10 02:12:15;;;;;;;4.45;2.00;;;16.60;57.50;;;;;;5073322;28;20033;-82
2023/05/10 02:14:42;;;;;;;3.90;2.10;;;16.60;57.70;;;;;;5073201;28;20429;-81
2023/05/10 02:17:09;;;;;;;3.60;2.03;;;16.60;58.30;;;;;;5072774;28;20115;-81
2023/05/10 02:19:38;;;;;;;7.32;2.30;;;16.60;58.60;;;;;;5073120;28;20044;-80
2023/05/10 02:22:05;;;;;;;5.65;2.15;;;16.60;58.40;;;;;;5072903;28;20443;-80
2023/05/10 02:24:33;;;;;;;4.15;2.00;;;16.60;58.10;;;;;;5073152;28;20103;-79
2023/05/10 02:27:01;;;;;;;5.40;2.10;;;16.60;58.70;;;;;;5073335;28;20028;-80
2023/05/10 02:29:28;;;;;;;3.00;2.08;;;16.60;58.40;;;;;;5073101;28;20036;-80
2023/05/10 02:31:55;;;;;;;7.47;2.70;;;16.60;58.20;;;;;;5076409;22;20110;-90
2023/05/10 02:34:26;;;;;;;4.43;1.98;;;16.50;58.20;;;;;;5014983;28;20049;-91
2023/05/10 02:36:54;;;;;;;4.73;1.90;;;16.50;58.50;;;;;;5014944;28;20028;-91
2023/05/10 02:39:20;;;;;;;5.15;2.05;;;16.50;58.50;;;;;;5014923;28;20049;-89
2023/05/10 02:41:48;;;;;;;2.80;2.03;;;16.50;58.60;;;;;;5015221;28;20125;-88
2023/05/10 02:44:17;;;;;;;5.40;2.40;;;16.50;58.80;;;;;;5015033;28;20387;-88
2023/05/10 02:46:48;;;;;;;4.80;1.90;;;16.50;59.10;;;;;;5014680;28;20095;-87
2023/05/10 02:49:15;;;;;;;4.45;2.28;;;16.50;60.10;;;;;;5014575;28;20038;-89
2023/05/10 03:19:24;;;;;;;3.50;2.33;;;16.30;60.00;;;;;;4862270;29;20118;-85
2023/05/10 03:22:08;;;;;;;3.35;1.95;;;16.30;60.10;;;;;;4899718;29;20041;-86
2023/05/10 03:24:36;;;;;;;5.50;2.30;;;16.30;60.00;;;;;;4917049;28;20467;-83
2023/05/10 03:27:04;;;;;;;4.05;2.22;;;16.30;59.80;;;;;;5016858;28;20056;-85
2023/05/10 03:29:31;;;;;;;3.78;2.35;;;16.30;59.80;;;;;;5018035;28;20029;-85
2023/05/10 03:32:00;;;;;;;3.90;2.30;;;16.30;60.10;;;;;;5017237;28;20116;-86
2023/05/10 03:34:29;;;;;;;10.25;2.42;;;16.40;60.30;;;;;;5016169;28;20584;-85
2023/05/10 03:36:55;;;;;;;7.03;2.17;;;16.30;60.10;;;;;;5016690;28;20034;-86
2023/05/10 03:39:21;;;;;;;3.58;2.13;;;16.30;59.90;;;;;;5016975;28;20045;-86
2023/05/10 03:41:47;;;;;;;4.25;2.53;;;16.30;60.60;;;;;;5017199;28;20096;-86
2023/05/10 03:44:13;;;;;;;5.88;2.20;;;16.30;60.40;;;;;;5016453;28;20121;-88
2023/05/10 03:46:38;;;;;;;4.93;2.13;;;16.30;60.10;;;;;;5016977;28;20049;-87
2023/05/10 03:49:04;;;;;;;2.72;2.17;;;16.30;60.40;;;;;;5017199;28;20097;-85
2023/05/10 03:51:31;;;;;;;4.35;2.40;;;16.30;60.10;;;;;;5017441;28;20148;-87
2023/05/10 03:53:56;;;;;;;6.60;2.50;;;16.30;60.70;;;;;;4999779;28;20046;-86
2023/05/10 03:56:22;;;;;;;5.90;2.30;;;16.30;60.30;;;;;;5000481;28;20092;-88
2023/05/10 03:58:48;;;;;;;4.55;2.45;;;16.30;60.70;;;;;;5018089;28;20100;-88
2023/05/10 04:01:14;;;;;;;3.88;2.35;;;16.30;60.90;;;;;;5018043;28;20033;-89
2023/05/10 04:03:40;;;;;;;3.88;2.10;;;16.30;60.70;;;;;;5023182;28;20422;-85
2023/05/10 04:06:08;;;;;;;5.10;2.30;;;16.30;60.50;;;;;;5020260;28;20100;-86
2023/05/10 04:08:33;;;;;;;7.20;2.42;;;16.30;60.60;;;;;;5020182;28;20492;-83
2023/05/10 04:11:09;;;;;;;2.90;2.10;;;16.30;60.90;;;;;;5038265;28;20085;-84
2023/05/10 04:13:36;;;;;;;5.05;2.45;;;16.40;60.80;;;;;;5018399;28;20046;-85
2023/05/10 04:16:02;;;;;;;6.28;2.40;;;16.40;61.70;;;;;;5016106;28;20041;-86
2023/05/10 04:18:28;;;;;;;2.80;1.83;;;16.40;62.20;;;;;;5016369;28;20042;-89
2023/05/10 04:20:53;;;;;;;5.28;2.28;;;16.40;61.70;;;;;;5019332;28;20034;-88
2023/05/10 04:23:19;;;;;;;3.22;2.30;;;16.40;60.90;;;;;;5017689;28;20033;-88
2023/05/10 04:25:45;;;;;;;6.72;2.20;;;16.40;61.20;;;;;;5017542;28;20487;-89
2023/05/10 04:28:11;;;;;;;6.03;2.50;;;16.40;61.20;;;;;;5016797;28;20094;-90
2023/05/10 04:30:36;;;;;;;8.13;2.30;;;16.40;61.70;;;;;;5016970;28;20033;-90
2023/05/10 04:33:03;;;;;;;6.10;2.58;;;16.40;62.80;;;;;;5010160;28;20091;-86
2023/05/10 04:35:45;;;;;;;5.38;2.63;;;16.40;62.90;;;;;;5017363;28;20038;-86
2023/05/10 04:38:13;;;;;;;6.47;2.33;;;16.40;62.30;;;;;;5016667;28;20041;-87
2023/05/10 04:55:51;;;;;;;6.80;2.45;;;16.50;62.50;;;;;;4843817;29;20053;-91
2023/05/10 05:04:06;;;;;;;7.85;2.38;;;16.50;63.40;;;;;;4843728;29;20544;-88
2023/05/10 05:06:32;;;;;;;4.82;2.20;;;16.50;62.90;;;;;;4884329;29;20470;-90
2023/05/10 05:08:58;;;;;;;6.15;2.45;;;16.50;62.70;;;;;;4957445;28;20384;-93
2023/05/10 05:11:25;;;;;;;3.30;2.58;;;16.60;63.10;;;;;;5016597;28;20476;-88
2023/05/10 05:13:51;;;;;;;6.80;2.20;;;16.60;63.10;;;;;;5016580;28;20042;-91
2023/05/10 05:16:17;;;;;;;3.55;2.22;;;16.60;63.20;;;;;;5014307;28;20538;-88
2023/05/10 05:18:43;;;;;;;4.03;2.40;;;16.60;63.40;;;;;;5015968;28;20121;-88
2023/05/10 05:21:19;;;;;;;3.33;2.60;;;16.60;63.30;;;;;;5016496;28;20037;-89
2023/05/10 05:23:45;;;;;;;9.40;2.63;;;16.60;64.50;;;;;;5016183;28;20038;-88
2023/05/10 05:26:11;;;;;;;6.15;2.63;;;16.60;64.60;;;;;;5019899;28;20041;-89
2023/05/10 05:28:37;;;;;;;3.17;2.50;;;16.60;64.50;;;;;;5028583;28;20034;-92
2023/05/10 05:31:09;;;;;;;3.28;2.30;;;16.70;65.10;;;;;;5017263;28;20057;-93
2023/05/10 05:33:35;;;;;;;3.60;2.30;;;16.60;65.20;;;;;;5035506;28;20517;-90
2023/05/10 05:36:02;;;;;;;4.80;2.60;;;16.70;64.80;;;;;;5036309;28;20475;-92
2023/05/10 05:38:28;;;;;;;5.55;2.40;;;16.70;64.70;;;;;;5036249;28;20493;-93
2023/05/10 05:40:54;;;;;;;8.23;2.60;;;16.70;64.10;;;;;;5018371;28;20030;-93
2023/05/10 05:43:20;;;;;;;2.75;2.25;;;16.70;64.00;;;;;;5035967;28;20121;-86
2023/05/10 05:45:46;;;;;;;4.47;2.45;;;16.70;64.70;;;;;;5035800;28;20112;-91
2023/05/10 05:48:12;;;;;;;4.90;2.65;;;16.80;64.90;;;;;;5035984;28;20076;-90
2023/05/10 05:50:37;;;;;;;7.68;2.58;;;16.80;65.40;;;;;;5034742;28;20040;-89
2023/05/10 05:53:03;;;;;;;7.15;3.17;;;16.80;65.40;;;;;;5035126;28;20144;-92
2023/05/10 05:55:31;;;;;;;3.72;2.58;;;16.80;66.00;;;;;;5017934;28;20045;-89
2023/05/10 05:57:57;;;;;;;7.40;2.70;;;16.80;66.20;;;;;;5017932;28;20057;-91
2023/05/10 06:00:23;;;;;;;7.43;2.70;;;16.80;66.20;;;;;;5035102;28;20116;-84
2023/05/10 06:02:49;;;;;;;17.27;4.43;;;16.80;66.30;;;;;;5033350;28;20113;-83
2023/05/10 06:05:15;;;;;;;32.78;5.57;;;16.90;66.90;;;;;;5033366;28;20136;-79
2023/05/10 06:07:42;;;;;;;17.05;6.25;;;16.90;66.80;;;;;;5033470;28;20052;-79
2023/05/10 06:10:08;;;;;;;17.67;6.43;;;16.90;67.00;;;;;;5033179;28;20033;-78
2023/05/10 06:12:35;;;;;;;18.90;6.57;;;16.90;66.40;;;;;;5034496;28;20091;-79
2023/05/10 06:15:00;;;;;;;13.50;5.90;;;16.90;67.00;;;;;;5034148;28;20509;-76
2023/05/10 06:17:27;;;;;;;14.80;5.43;;;16.90;68.40;;;;;;5033679;28;20107;-77
2023/05/10 06:19:53;;;;;;;16.23;5.32;;;16.90;68.40;;;;;;5033474;28;20415;-76
2023/05/10 06:22:31;;;;;;;12.35;3.58;;;17.00;68.10;;;;;;5015849;28;20029;-76
2023/05/10 06:25:17;;;;;;;19.67;4.60;;;16.90;68.40;;;;;;5033346;28;20040;-76
2023/05/10 06:28:12;;;;;;;5.97;3.33;;;17.00;69.00;;;;;;5032846;28;20041;-76
2023/05/10 06:30:50;;;;;;;8.70;3.30;;;17.00;68.10;;;;;;5015403;28;20107;-76
2023/05/10 06:33:19;;;;;;;7.93;3.10;;;17.00;68.90;;;;;;5030165;28;20045;-76
2023/05/10 06:36:38;;;;;;;10.20;3.28;;;17.00;69.10;;;;;;5032043;28;20407;-76
2023/05/10 06:39:30;;;;;;;;;;;;;;;;;;;;;
2023/05/10 06:42:33;;;;;;;9.43;3.20;;;17.00;68.90;;;;;;4994989;28;20045;-81
2023/05/10 06:45:34;;;;;;;7.82;2.92;;;17.00;70.30;;;;;;5032739;28;20048;-80
2023/05/10 06:48:28;;;;;;;9.68;3.50;;;17.10;68.90;;;;;;5032823;28;20445;-78
2023/05/10 06:50:54;;;;;;;7.28;3.40;;;17.10;70.40;;;;;;5032919;28;20033;-78
2023/05/10 06:53:20;;;;;;;7.38;3.28;;;17.10;72.30;;;;;;5031943;28;20454;-80
2023/05/10 06:55:46;;;;;;;5.78;3.10;;;17.10;72.10;;;;;;5032275;28;20053;-79
2023/05/10 06:58:12;;;;;;;8.68;3.33;;;17.10;71.70;;;;;;5032619;28;20380;-81
2023/05/10 07:00:40;;;;;;;6.40;3.00;;;17.10;73.40;;;;;;5014716;28;20095;-77
2023/05/10 07:03:06;;;;;;;4.55;3.15;;;17.10;72.50;;;;;;5032333;28;20391;-75
2023/05/10 07:05:32;;;;;;;10.02;3.08;;;17.10;71.20;;;;;;5032287;28;20052;-76
2023/05/10 07:07:58;;;;;;;7.60;3.50;;;17.10;72.30;;;;;;5014624;28;20033;-76
2023/05/10 07:10:24;;;;;;;5.68;3.38;;;17.00;72.70;;;;;;5032104;28;20042;-75
2023/05/10 07:12:49;;;;;;;6.82;3.22;;;17.10;73.60;;;;;;5032078;28;20025;-76
2023/05/10 07:15:15;;;;;;;6.88;3.30;;;17.10;73.50;;;;;;5032007;28;20045;-75
2023/05/10 07:17:41;;;;;;;8.18;3.75;;;17.10;73.40;;;;;;5032477;28;20036;-76
2023/05/10 07:20:08;;;;;;;5.05;3.38;;;17.00;72.60;;;;;;5032299;28;20038;-76
2023/05/10 07:22:33;;;;;;;6.05;3.55;;;17.00;74.00;;;;;;5031993;28;20030;-78
2023/05/10 07:24:59;;;;;;;7.88;3.45;;;17.00;74.50;;;;;;5031793;28;20100;-75
2023/05/10 07:27:25;;;;;;;6.18;3.63;;;17.10;74.30;;;;;;5031889;28;20033;-75
2023/05/10 07:29:51;;;;;;;7.32;3.88;;;17.00;75.00;;;;;;5032062;28;20069;-76
2023/05/10 07:32:17;;;;;;;7.55;3.15;;;17.10;74.80;;;;;;5031832;28;20060;-73
2023/05/10 07:34:42;;;;;;;6.63;3.70;;;17.10;75.20;;;;;;5031878;28;20049;-74
2023/05/10 07:37:08;;;;;;;9.38;3.00;;;17.10;77.30;;;;;;5032160;28;20030;-75
2023/05/10 07:39:34;;;;;;;6.72;3.17;;;17.10;77.00;;;;;;5032166;28;20038;-74
2023/05/10 07:42:00;;;;;;;9.13;3.40;;;17.10;76.60;;;;;;5032025;28;20033;-75
2023/05/10 07:44:25;;;;;;;7.78;3.92;;;17.20;76.70;;;;;;5031764;28;20056;-75
2023/05/10 07:46:52;;;;;;;3.97;3.15;;;17.20;77.30;;;;;;5031482;28;20172;-74
2023/05/10 07:49:18;;;;;;;6.50;3.50;;;17.20;77.40;;;;;;5032284;28;20072;-75
2023/05/10 07:51:43;;;;;;;4.97;3.38;;;17.20;76.50;;;;;;5032173;28;20088;-75
2023/05/10 07:54:09;;;;;;;4.05;3.00;;;17.20;76.40;;;;;;5031949;28;20056;-76
2023/05/10 07:56:35;;;;;;;7.28;3.35;;;17.30;76.00;;;;;;5032701;28;20125;-74
2023/05/10 07:59:06;;;;;;;7.22;3.60;;;17.30;76.30;;;;;;5032593;28;20037;-75
2023/05/10 08:01:34;;;;;;;5.65;3.33;;;17.30;76.70;;;;;;5032179;28;20029;-74
2023/05/10 08:04:01;;;;;;;5.35;3.17;;;17.30;77.30;;;;;;5034500;28;20502;-74
2023/05/10 08:06:29;;;;;;;4.65;2.90;;;17.30;77.00;;;;;;5035990;28;20033;-74
2023/05/10 08:08:55;;;;;;;4.90;3.47;;;17.30;77.50;;;;;;5036078;28;20026;-74
2023/05/10 08:11:25;;;;;;;4.63;3.03;;;17.20;76.90;;;;;;5036077;28;20399;-74
2023/05/10 08:14:17;;;;;;;8.00;3.20;;;17.30;76.30;;;;;;5035951;28;20033;-74
2023/05/10 08:17:05;;;;;;;4.63;3.35;;;17.30;77.30;;;;;;5033948;28;20426;-73
2023/05/10 08:19:57;;;;;;;4.72;3.38;;;17.30;77.30;;;;;;5035624;28;20442;-73
2023/05/10 08:23:00;;;;;;;4.15;2.92;;;17.30;78.00;;;;;;5033497;28;20041;-74
2023/05/10 08:26:07;;;;;;;5.30;3.40;;;17.30;78.00;;;;;;5019897;28;20048;-74
2023/05/10 08:28:57;;;;;;;4.47;3.30;;;17.20;76.90;;;;;;4993661;28;20412;-74
2023/05/10 08:31:28;;;;;;;6.10;3.60;;;17.30;79.10;;;;;;4993804;28;20034;-73
2023/05/10 08:34:40;;;;;;;3.95;2.78;;;17.20;79.50;;;;;;4977368;28;20098;-73
2023/05/10 08:37:07;;;;;;;7.35;3.88;;;17.30;79.50;;;;;;4916464;29;20032;-72
2023/05/10 08:39:36;;;;;;;7.80;3.72;;;17.30;78.80;;;;;;4985927;28;20451;-72
2023/05/10 08:42:04;;;;;;;6.72;2.90;;;17.20;79.00;;;;;;5014320;28;20392;-73
2023/05/10 08:44:34;;;;;;;9.00;3.50;;;17.20;79.90;;;;;;4997807;28;20084;-73
2023/05/10 08:47:05;;;;;;;5.80;3.35;;;17.30;80.00;;;;;;5015332;28;20372;-73
2023/05/10 08:49:32;;;;;;;5.55;3.08;;;17.30;79.00;;;;;;5013082;28;20421;-73
2023/05/10 08:52:03;;;;;;;6.63;3.20;;;17.20;80.30;;;;;;5012444;28;20523;-73
2023/05/10 08:54:30;;;;;;;3.70;3.03;;;17.20;79.80;;;;;;5012736;28;20046;-73
2023/05/10 08:56:56;;;;;;;5.88;3.10;;;17.30;78.80;;;;;;5012669;28;20037;-73
2023/05/10 08:59:22;;;;;;;9.50;3.30;;;17.30;79.60;;;;;;5012974;28;20045;-73
2023/05/10 09:01:50;;;;;;;3.80;3.13;;;17.20;80.90;;;;;;5011827;28;20057;-72
2023/05/10 09:04:16;;;;;;;5.07;3.65;;;17.20;79.70;;;;;;5012477;28;20555;-72
2023/05/10 09:06:42;;;;;;;4.00;3.20;;;17.20;81.20;;;;;;5012952;28;20114;-73
2023/05/10 09:09:08;;;;;;;5.13;3.20;;;17.20;81.00;;;;;;5012285;28;20065;-74
2023/05/10 09:11:34;;;;;;;4.60;3.25;;;17.20;81.00;;;;;;5013053;28;20373;-73
2023/05/10 09:14:02;;;;;;;6.57;3.42;;;17.10;81.80;;;;;;5012214;28;20511;-72
2023/05/10 09:16:27;;;;;;;4.28;3.45;;;17.10;81.60;;;;;;5012019;28;20038;-72
2023/05/10 09:18:53;;;;;;;5.78;3.85;;;17.10;82.10;;;;;;5012400;28;20081;-73
2023/05/10 09:21:20;;;;;;;5.57;3.63;;;17.00;82.30;;;;;;5012512;28;20113;-74
2023/05/10 09:23:46;;;;;;;5.70;3.78;;;17.00;82.40;;;;;;5012829;28;20030;-73
2023/05/10 09:26:12;;;;;;;5.95;3.75;;;17.00;81.70;;;;;;5012617;28;20036;-72
2023/05/10 09:28:52;;;;;;;4.85;3.30;;;17.00;81.90;;;;;;4994251;28;20665;-73
2023/05/10 09:31:18;;;;;;;5.72;3.88;;;16.90;82.40;;;;;;5012065;28;20051;-73
2023/05/10 09:33:48;;;;;;;5.38;3.67;;;16.90;83.50;;;;;;5025432;28;20064;-72
2023/05/10 09:36:15;;;;;;;6.15;3.53;;;16.80;83.20;;;;;;5032229;28;20037;-73
2023/05/10 09:38:52;;;;;;;11.02;3.80;;;16.80;83.80;;;;;;5016267;28;20072;-72
2023/05/10 09:41:19;;;;;;;5.25;4.07;;;16.80;85.90;;;;;;5033533;28;20064;-73
2023/05/10 09:43:45;;;;;;;5.25;3.83;;;16.70;86.60;;;;;;5034337;28;20044;-72
2023/05/10 09:46:11;;;;;;;9.63;4.20;;;16.70;86.50;;;;;;5033989;28;20383;-72
2023/05/10 09:48:47;;;;;;;7.65;4.10;;;16.70;86.90;;;;;;5034551;28;20576;-73
2023/05/10 09:51:21;;;;;;;7.50;4.05;;;16.70;88.60;;;;;;5034333;28;20072;-73
2023/05/10 09:53:50;;;;;;;5.85;3.85;;;16.70;88.30;;;;;;5034077;28;20069;-72
2023/05/10 09:56:40;;;;;;;8.60;3.75;;;16.70;87.40;;;;;;5033804;28;20059;-72
2023/05/10 09:59:45;;;;;;;5.68;4.63;;;16.70;87.10;;;;;;5033589;28;20092;-72
2023/05/10 10:02:19;;;;;;;9.18;3.95;;;16.60;89.60;;;;;;5032059;28;20124;-73
2023/05/10 10:05:13;;;;;;;11.30;4.55;;;16.60;89.70;;;;;;5033525;28;20034;-71
2023/05/10 10:07:50;;;;;;;10.63;4.53;;;16.50;88.90;;;;;;5033280;28;20041;-72
2023/05/10 10:10:54;;;;;;;11.25;4.32;;;16.50;90.60;;;;;;5033582;28;20116;-72
2023/05/10 10:13:53;;;;;;;9.35;4.38;;;16.50;90.80;;;;;;4991248;28;20038;-73
2023/05/10 10:16:18;;;;;;;9.77;4.57;;;16.50;90.50;;;;;;4990514;28;20041;-73
2023/05/10 10:21:45;;;;;;;5.70;4.40;;;16.50;90.50;;;;;;4991747;28;20093;-72
2023/05/10 10:24:11;;;;;;;6.40;4.30;;;16.40;90.60;;;;;;5013169;28;20395;-73
2023/05/10 10:26:38;;;;;;;9.48;3.95;;;16.40;90.90;;;;;;5032051;28;20403;-73
2023/05/10 10:29:24;;;;;;;8.40;5.20;;;16.40;90.70;;;;;;5033099;28;20041;-72
2023/05/10 10:32:04;;;;;;;9.07;4.60;;;16.30;90.60;;;;;;5033184;28;20042;-73
2023/05/10 10:34:31;;;;;;;6.40;4.82;;;16.30;91.30;;;;;;5033070;28;20091;-72
2023/05/10 10:36:57;;;;;;;6.55;4.72;;;16.30;91.80;;;;;;5032640;28;20030;-73
2023/05/10 10:39:27;;;;;;;9.82;5.03;;;16.30;92.10;;;;;;5032795;28;20038;-73
2023/05/10 10:41:54;;;;;;;12.07;5.65;;;16.40;93.20;;;;;;5032763;28;20064;-73
2023/05/10 10:44:26;;;;;;;6.10;4.72;;;16.40;94.20;;;;;;5032789;28;20498;-73
2023/05/10 10:47:08;;;;;;;7.35;4.93;;;16.40;93.50;;;;;;5032915;28;20029;-75
2023/05/10 10:49:40;;;;;;;;;;;16.30;92.10;;;;;;5032800;28;20065;-72
2023/05/10 10:52:26;;;;;;;10.75;5.97;;;16.30;92.50;;;;;;5032762;28;20271;-73
2023/05/10 10:54:58;;;;;;;11.23;6.07;;;16.30;91.90;;;;;;5032687;28;20046;-73
2023/05/10 10:57:26;;;;;;;6.03;5.30;;;16.30;91.80;;;;;;5032668;28;20061;-72
2023/05/10 11:00:12;;;;;;;8.85;5.18;;;16.30;91.90;;;;;;5032522;28;20124;-73
2023/05/10 11:02:41;;;;;;;12.65;6.35;;;16.30;91.80;;;;;;5025757;28;20049;-72
2023/05/10 11:05:32;;;;;;;7.20;5.10;;;16.30;91.40;;;;;;5032565;28;20410;-73
2023/05/10 11:07:59;;;;;;;6.43;5.70;;;16.30;91.00;;;;;;5032474;28;20502;-72
2023/05/10 11:10:26;;;;;;;10.77;7.80;;;16.30;91.30;;;;;;5032427;28;20034;-72
2023/05/10 11:13:11;;;;;;;8.38;6.80;;;16.30;91.60;;;;;;5014738;28;20368;-72
2023/05/10 11:15:38;;;;;;;10.90;7.00;;;16.30;91.40;;;;;;5031080;28;20042;-72
2023/05/10 11:18:23;;;;;;;13.75;7.78;;;16.30;91.60;;;;;;5032341;28;20040;-72
2023/05/10 11:20:55;;;;;;;9.30;6.15;;;16.20;92.20;;;;;;5032356;28;20057;-72
2023/05/10 11:23:22;;;;;;;8.85;7.30;;;16.20;92.00;;;;;;5032529;28;20112;-71
2023/05/10 11:25:49;;;;;;;8.00;6.22;;;16.20;92.50;;;;;;5015238;28;20034;-73
2023/05/10 11:28:18;;;;;;;9.40;6.03;;;16.20;92.60;;;;;;5043851;28;20559;-72
2023/05/10 11:30:44;;;;;;;11.18;7.00;;;16.20;92.60;;;;;;5049664;28;20049;-72
2023/05/10 11:33:16;;;;;;;9.38;6.57;;;16.20;92.70;;;;;;5040721;28;20053;-72
2023/05/10 11:35:43;;;;;;;7.72;6.55;;;16.20;92.20;;;;;;5032374;28;20113;-72
2023/05/10 11:38:38;;;;;;;7.90;6.05;;;16.10;93.10;;;;;;5033017;28;20387;-72
2023/05/10 11:41:13;;;;;;;7.30;6.53;;;16.10;93.00;;;;;;5036170;28;20037;-72
2023/05/10 11:50:34;;;;;;;12.50;6.50;;;16.20;94.00;;;;;;4888824;29;20048;-72
2023/05/10 11:57:19;;;;;;;7.85;6.35;;;16.20;93.70;;;;;;4895078;29;20041;-72
2023/05/10 12:03:59;;;;;;;13.20;7.40;;;16.30;93.70;;;;;;4787165;30;20042;-73
2023/05/10 12:06:28;;;;;;;7.55;6.30;;;16.30;95.30;;;;;;4870871;29;20557;-73
2023/05/10 12:08:54;;;;;;;8.63;6.95;;;16.40;94.40;;;;;;4955308;29;20472;-72
2023/05/10 12:11:24;;;;;;;9.50;6.65;;;16.40;93.90;;;;;;5015896;28;20046;-72
2023/05/10 12:13:50;;;;;;;7.75;6.32;;;16.40;94.30;;;;;;5035416;28;20041;-71
2023/05/10 12:16:21;;;;;;;10.02;6.43;;;16.40;94.50;;;;;;5035403;28;20368;-72
2023/05/10 12:18:51;;;;;;;12.00;7.43;;;16.50;94.30;;;;;;5031477;28;20083;-73
2023/05/10 12:21:18;;;;;;;8.10;6.93;;;16.50;93.90;;;;;;5030570;28;20033;-72
2023/05/10 12:23:46;;;;;;;8.00;6.05;;;16.50;94.10;;;;;;5004974;28;20439;-72
2023/05/10 12:26:12;;;;;;;7.53;6.40;;;16.50;94.10;;;;;;5015196;28;20029;-72
2023/05/10 12:28:41;;;;;;;7.80;6.43;;;16.50;93.40;;;;;;5028751;28;20057;-72
2023/05/10 12:31:08;;;;;;;7.32;6.47;;;16.60;93.80;;;;;;5034873;28;20535;-72
2023/05/10 12:33:42;;;;;;;6.68;5.95;;;16.60;93.90;;;;;;5034509;28;20057;-73
2023/05/10 12:36:10;;;;;;;7.00;6.40;;;16.60;93.50;;;;;;5034979;28;20472;-73
2023/05/10 12:38:42;;;;;;;9.68;5.90;;;16.60;93.40;;;;;;5034602;28;20039;-73
2023/05/10 12:41:17;;;;;;;;;;;16.60;93.20;;;;;;5032172;28;20036;-73
2023/05/10 12:43:45;;;;;;;8.88;6.28;;;16.60;93.20;;;;;;5020721;28;19910;-72
2023/05/10 12:46:11;;;;;;;7.20;6.05;;;16.60;93.20;;;;;;5012963;28;20069;-72
2023/05/10 12:48:39;;;;;;;8.38;6.57;;;16.60;92.90;;;;;;5014944;28;20030;-72
2023/05/10 12:51:09;;;;;;;7.07;6.38;;;16.60;94.20;;;;;;4996535;28;20038;-73
2023/05/10 12:53:35;;;;;;;9.27;6.40;;;16.60;93.90;;;;;;5014654;28;20048;-78
2023/05/10 12:56:01;;;;;;;9.02;6.28;;;16.60;93.20;;;;;;5014664;28;20395;-73
2023/05/10 12:58:27;;;;;;;7.18;6.28;;;16.60;93.40;;;;;;5024845;28;20129;-73
2023/05/10 13:00:53;;;;;;;8.73;6.07;;;16.60;93.40;;;;;;5017559;28;20037;-73
2023/05/10 13:03:19;;;;;;;7.30;6.05;;;16.60;93.20;;;;;;5014803;28;20061;-72
2023/05/10 13:05:45;;;;;;;8.77;6.78;;;16.60;92.90;;;;;;5014684;28;20508;-72
2023/05/10 13:08:11;;;;;;;8.82;6.25;;;16.60;92.90;;;;;;5015311;28;20129;-71
2023/05/10 13:10:37;;;;;;;7.85;7.05;;;16.60;93.40;;;;;;5015073;28;20030;-73
2023/05/10 13:13:03;;;;;;;8.07;7.28;;;16.60;93.70;;;;;;5015084;28;20042;-74
2023/05/10 13:15:34;;;;;;;9.50;7.82;;;16.50;95.00;;;;;;5014923;28;20049;-73
2023/05/10 13:35:17;;;;;;;10.52;7.03;;;16.50;95.00;;;;;;4932467;29;20044;-73
2023/05/10 13:37:43;;;;;;;6.78;6.07;;;16.50;95.20;;;;;;4933109;29;20126;-73
2023/05/10 13:40:52;;;;;;;7.80;6.03;;;16.50;94.90;;;;;;4971767;28;20130;-73
2023/05/10 13:43:21;;;;;;;7.05;5.80;;;16.60;94.20;;;;;;4969938;28;20515;-73
2023/05/10 13:45:47;;;;;;;7.85;6.32;;;16.60;94.00;;;;;;4972912;28;20046;-73
2023/05/10 13:48:13;;;;;;;6.25;5.65;;;16.60;94.00;;;;;;4989852;28;20050;-73
2023/05/10 13:50:39;;;;;;;6.50;5.90;;;16.60;94.50;;;;;;5044512;28;20116;-73
2023/05/10 13:53:05;;;;;;;7.07;5.88;;;16.60;95.40;;;;;;5053513;28;20174;-74
2023/05/10 13:55:31;;;;;;;10.35;6.43;;;16.60;95.60;;;;;;5053498;28;20116;-73
2023/05/10 13:57:57;;;;;;;7.63;6.30;;;16.60;95.70;;;;;;5036133;28;20044;-73
2023/05/10 14:00:23;;;;;;;8.32;5.40;;;16.60;95.50;;;;;;5053286;28;20061;-73
2023/05/10 14:02:49;;;;;;;6.75;5.93;;;16.60;94.40;;;;;;5035354;28;20530;-73
2023/05/10 14:05:15;;;;;;;7.25;5.40;;;16.60;95.30;;;;;;5015179;28;20121;-73
2023/05/10 14:07:41;;;;;;;6.80;5.65;;;16.60;95.40;;;;;;5032591;28;20064;-74
2023/05/10 14:10:07;;;;;;;6.80;6.10;;;16.60;94.40;;;;;;5015226;28;20064;-74
2023/05/10 14:12:32;;;;;;;7.47;6.22;;;16.60;95.90;;;;;;5033441;28;20502;-74
2023/05/10 14:14:58;;;;;;;6.07;5.47;;;16.60;95.50;;;;;;5033237;28;20116;-74
2023/05/10 14:17:24;;;;;;;5.80;5.25;;;16.60;95.10;;;;;;5033228;28;20036;-74
2023/05/10 14:19:49;;;;;;;8.43;6.63;;;16.60;94.40;;;;;;5033275;28;20041;-77
2023/05/10 14:22:15;;;;;;;7.40;6.38;;;16.60;94.70;;;;;;5033170;28;20040;-73
2023/05/10 14:24:41;;;;;;;7.35;6.32;;;16.60;95.90;;;;;;5033556;28;20037;-74
2023/05/10 14:27:07;;;;;;;9.23;7.15;;;16.60;95.80;;;;;;5033118;28;20083;-74
2023/05/10 14:29:33;;;;;;;7.95;6.25;;;16.60;95.70;;;;;;5032837;28;20102;-74